createdAt,value
2023-04-10T00:01:09.009Z,101094.30
2023-04-10T00:03:47.050Z,101089.81
2023-04-10T00:06:19.943Z,101087.95
2023-04-10T00:08:47.139Z,101090.67
2023-04-10T00:11:14.095Z,101087.73
2023-04-10T00:13:43.404Z,101089.84
2023-04-10T00:16:10.948Z,101090.35
2023-04-10T00:18:37.885Z,101090.52
2023-04-10T00:21:05.551Z,101090.16
2023-04-10T00:23:39.091Z,101090.38
2023-04-10T00:26:12.157Z,101086.16
2023-04-10T00:28:42.932Z,101087.39
2023-04-10T00:31:18.496Z,101089.65
2023-04-10T00:33:57.452Z,101087.20
2023-04-10T00:36:28.338Z,101086.00
2023-04-10T00:38:56.262Z,101085.60
2023-04-10T00:41:28.863Z,101085.05
2023-04-10T00:43:56.662Z,101083.34
2023-04-10T00:46:23.855Z,101082.63
2023-04-10T00:48:54.942Z,101082.77
2023-04-10T00:51:22.482Z,101081.63
2023-04-10T00:53:52.116Z,101080.20
2023-04-10T00:56:20.209Z,101076.14
2023-04-10T00:58:48.629Z,101075.91
2023-04-10T01:01:15.506Z,101074.67
2023-04-10T01:03:43.223Z,101073.37
2023-04-10T01:06:38.153Z,101076.15
2023-04-10T01:09:17.599Z,101078.41
2023-04-10T01:12:21.423Z,101081.02
2023-04-10T01:15:03.661Z,101082.77
2023-04-10T01:17:50.627Z,101088.02
2023-04-10T01:20:22.981Z,101086.70
2023-04-10T01:23:47.717Z,101083.55
2023-04-10T01:26:16.758Z,101085.79
2023-04-10T01:28:53.252Z,101083.26
2023-04-10T01:31:41.959Z,101082.54
2023-04-10T01:34:16.271Z,101082.66
2023-04-10T01:36:49.869Z,101080.34
2023-04-10T01:39:18.615Z,101082.76
2023-04-10T01:41:45.471Z,101080.91
2023-04-10T01:44:14.644Z,101080.71
2023-04-10T01:46:43.368Z,101081.52
2023-04-10T01:49:11.395Z,101076.52
2023-04-10T01:51:39.413Z,101078.79
2023-04-10T01:54:13.793Z,101080.52
2023-04-10T01:56:41.413Z,101083.34
2023-04-10T01:59:08.477Z,101082.83
2023-04-10T02:01:35.468Z,101087.27
2023-04-10T02:04:03.080Z,101082.30
2023-04-10T02:06:49.148Z,101081.98
2023-04-10T02:09:45.610Z,101085.94
2023-04-10T02:12:25.151Z,101087.62
2023-04-10T02:14:58.666Z,101090.90
2023-04-10T02:17:28.000Z,101088.48
2023-04-10T02:19:58.196Z,101088.34
2023-04-10T02:22:25.214Z,101085.95
2023-04-10T02:24:53.603Z,101085.49
2023-04-10T02:27:32.522Z,101086.42
2023-04-10T02:30:02.835Z,101086.46
2023-04-10T02:32:34.985Z,101089.11
2023-04-10T02:35:02.636Z,101091.20
2023-04-10T02:37:30.788Z,101090.98
2023-04-10T02:39:59.148Z,101090.10
2023-04-10T02:42:30.518Z,101093.41
2023-04-10T02:44:58.665Z,101091.52
2023-04-10T02:47:26.374Z,101091.16
2023-04-10T02:49:53.562Z,101093.89
2023-04-10T02:52:20.925Z,101095.08
2023-04-10T02:54:48.636Z,101095.23
2023-04-10T02:57:15.944Z,101089.45
2023-04-10T02:59:42.888Z,101093.09
2023-04-10T03:02:09.941Z,101094.46
2023-04-10T03:04:37.114Z,101090.98
2023-04-10T03:07:05.763Z,101090.77
2023-04-10T03:09:33.111Z,101092.84
2023-04-10T03:12:01.529Z,101090.20
2023-04-10T03:14:28.477Z,101091.75
2023-04-10T03:16:55.565Z,101093.98
2023-04-10T03:19:22.833Z,101095.73
2023-04-10T03:21:49.845Z,101098.16
2023-04-10T03:24:16.940Z,101096.56
2023-04-10T03:26:44.435Z,101103.56
2023-04-10T03:29:12.028Z,101102.48
2023-04-10T03:31:41.649Z,101103.05
2023-04-10T03:34:09.118Z,101098.69
2023-04-10T03:36:38.025Z,101103.75
2023-04-10T03:39:05.392Z,101103.60
2023-04-10T03:41:32.759Z,101105.91
2023-04-10T03:44:02.665Z,101104.91
2023-04-10T03:46:30.422Z,101104.59
2023-04-10T03:48:57.547Z,101108.77
2023-04-10T03:51:24.842Z,101111.57
2023-04-10T03:53:52.337Z,101110.24
2023-04-10T03:56:20.264Z,101115.15
2023-04-10T03:58:47.822Z,101115.52
2023-04-10T04:01:15.114Z,101117.61
2023-04-10T04:04:01.118Z,101119.38
2023-04-10T04:06:51.326Z,101124.20
2023-04-10T04:09:29.945Z,101126.45
2023-04-10T04:12:30.151Z,101133.17
2023-04-10T04:15:09.892Z,101128.55
2023-04-10T04:18:09.939Z,101130.02
2023-04-10T04:20:48.202Z,101131.67
2023-04-10T04:23:36.800Z,101132.59
2023-04-10T04:26:03.770Z,101133.36
2023-04-10T04:28:53.733Z,101131.41
2023-04-10T04:31:20.640Z,101135.87
2023-04-10T04:34:12.592Z,101133.58
2023-04-10T04:36:59.269Z,101135.27
2023-04-10T04:39:35.355Z,101136.10
2023-04-10T04:42:05.159Z,101136.70
2023-04-10T04:44:55.366Z,101136.94
2023-04-10T04:47:40.810Z,101141.41
2023-04-10T04:50:28.830Z,101139.44
2023-04-10T04:52:56.205Z,101137.30
2023-04-10T04:55:31.642Z,101143.58
2023-04-10T04:58:20.671Z,101144.95
2023-04-10T05:01:12.399Z,101146.95
2023-04-10T05:04:08.801Z,101148.36
2023-04-10T05:06:56.104Z,101151.48
2023-04-10T05:09:44.088Z,101149.68
2023-04-10T05:12:20.965Z,101155.02
2023-04-10T05:14:59.305Z,101158.97
2023-04-10T05:17:38.900Z,101161.91
2023-04-10T05:20:28.794Z,101161.52
2023-04-10T05:23:41.504Z,101163.11
2023-04-10T05:26:32.123Z,101157.84
2023-04-10T05:29:31.362Z,101158.98
2023-04-10T05:32:17.641Z,101159.77
2023-04-10T05:35:00.217Z,101161.38
2023-04-10T05:37:45.007Z,101162.26
2023-04-10T05:40:44.608Z,101164.19
2023-04-10T05:43:35.979Z,101165.75
2023-04-10T05:46:41.579Z,101170.79
2023-04-10T05:49:24.424Z,101176.04
2023-04-10T05:52:01.463Z,101173.06
2023-04-10T05:54:46.853Z,101174.45
2023-04-10T05:57:13.690Z,101174.86
2023-04-10T05:59:59.466Z,101173.36
2023-04-10T06:02:41.988Z,101174.08
2023-04-10T06:05:15.083Z,101173.69
2023-04-10T06:07:42.525Z,101171.58
2023-04-10T06:10:10.116Z,101175.09
2023-04-10T06:12:37.373Z,101178.17
2023-04-10T06:15:07.084Z,101180.69
2023-04-10T06:17:43.063Z,101180.60
2023-04-10T06:20:11.449Z,101181.66
2023-04-10T06:22:41.517Z,101186.65
2023-04-10T06:25:10.908Z,101187.50
2023-04-10T06:27:37.902Z,101187.54
2023-04-10T06:30:10.886Z,101191.95
2023-04-10T06:32:39.763Z,101191.48
2023-04-10T06:35:06.862Z,101189.27
2023-04-10T06:37:35.684Z,101191.97
2023-04-10T06:40:06.760Z,101192.08
2023-04-10T06:42:33.949Z,101196.18
2023-04-10T06:45:07.770Z,101195.61
2023-04-10T06:47:34.876Z,101196.57
2023-04-10T06:50:03.378Z,101196.96
2023-04-10T06:52:31.678Z,101199.40
2023-04-10T06:54:58.473Z,101199.34
2023-04-10T06:57:25.262Z,101203.48
2023-04-10T06:59:55.654Z,101201.86
2023-04-10T07:02:22.832Z,101205.87
2023-04-10T07:04:49.789Z,101205.76
2023-04-10T07:07:19.093Z,101201.69
2023-04-10T07:09:46.012Z,101208.12
2023-04-10T07:12:13.170Z,101205.06
2023-04-10T07:14:43.127Z,101205.27
2023-04-10T07:17:11.994Z,101205.62
2023-04-10T07:19:38.804Z,101207.89
2023-04-10T07:22:12.036Z,101207.07
2023-04-10T07:24:41.823Z,101208.08
2023-04-10T07:27:08.688Z,101212.90
2023-04-10T07:29:36.982Z,101215.02
2023-04-10T07:32:06.489Z,101217.57
2023-04-10T07:34:34.050Z,101222.39
2023-04-10T07:37:03.873Z,101221.23
2023-04-10T07:39:33.876Z,101227.80
2023-04-10T07:42:00.900Z,101228.57
2023-04-10T07:44:30.474Z,101228.43
2023-04-10T07:46:58.404Z,101232.63
2023-04-10T07:49:25.324Z,101230.41
2023-04-10T07:51:52.425Z,101232.55
2023-04-10T07:54:19.252Z,101231.48
2023-04-10T07:56:46.368Z,101234.75
2023-04-10T07:59:13.367Z,101229.68
2023-04-10T08:01:41.465Z,101230.06
2023-04-10T08:04:08.727Z,101234.08
2023-04-10T08:06:36.803Z,101231.86
2023-04-10T08:09:03.679Z,101229.52
2023-04-10T08:11:32.499Z,101227.52
2023-04-10T08:14:01.230Z,101231.20
2023-04-10T08:16:30.491Z,101228.40
2023-04-10T08:18:58.338Z,101229.05
2023-04-10T08:21:26.771Z,101232.01
2023-04-10T08:23:54.325Z,101231.08
2023-04-10T08:26:21.419Z,101227.89
2023-04-10T08:28:50.367Z,101223.61
2023-04-10T08:31:20.607Z,101227.55
2023-04-10T08:33:47.677Z,101229.36
2023-04-10T08:36:19.825Z,101226.33
2023-04-10T08:38:47.583Z,101228.33
2023-04-10T08:41:16.194Z,101222.02
2023-04-10T08:43:49.051Z,101227.34
2023-04-10T08:46:16.312Z,101229.88
2023-04-10T08:48:59.525Z,101227.60
2023-04-10T08:52:00.582Z,101226.30
2023-04-10T08:54:28.502Z,101226.50
2023-04-10T08:56:58.008Z,101227.38
2023-04-10T08:59:25.015Z,101224.52
2023-04-10T09:01:52.889Z,101227.92
2023-04-10T09:04:20.393Z,101224.81
2023-04-10T09:06:48.393Z,101228.00
2023-04-10T09:09:19.112Z,101230.48
2023-04-10T09:11:51.961Z,101227.40
2023-04-10T09:14:20.863Z,101227.67
2023-04-10T09:16:50.920Z,101223.21
2023-04-10T09:19:31.203Z,101225.30
2023-04-10T09:21:58.399Z,101224.66
2023-04-10T09:24:25.453Z,101227.37
2023-04-10T09:26:53.052Z,101223.49
2023-04-10T09:29:20.536Z,101219.10
2023-04-10T09:31:50.846Z,101218.78
2023-04-10T09:34:21.793Z,101226.05
2023-04-10T09:36:54.742Z,101226.08
2023-04-10T09:39:35.550Z,101235.14
2023-04-10T09:42:03.015Z,101231.69
2023-04-10T09:44:32.172Z,101231.73
2023-04-10T09:47:21.371Z,101227.45
2023-04-10T09:49:53.593Z,101227.05
2023-04-10T09:52:32.875Z,101226.65
2023-04-10T09:55:09.224Z,101227.32
2023-04-10T09:57:36.188Z,101227.65
2023-04-10T10:00:09.985Z,101223.45
2023-04-10T10:02:41.733Z,101226.63
2023-04-10T10:05:10.367Z,101226.93
2023-04-10T10:07:41.338Z,101225.36
2023-04-10T10:10:08.549Z,101229.23
2023-04-10T10:13:00.471Z,101223.33
2023-04-10T10:15:27.209Z,101220.86
2023-04-10T10:18:03.799Z,101222.56
2023-04-10T10:20:31.510Z,101217.33
2023-04-10T10:22:58.599Z,101212.44
2023-04-10T10:25:25.935Z,101211.86
2023-04-10T10:27:53.075Z,101211.77
2023-04-10T10:30:29.632Z,101212.83
2023-04-10T10:32:58.267Z,101207.11
2023-04-10T10:35:31.377Z,101207.86
2023-04-10T10:38:03.973Z,101212.17
2023-04-10T10:40:45.604Z,101211.23
2023-04-10T10:44:06.482Z,101212.27
2023-04-10T10:46:50.637Z,101209.27
2023-04-10T10:49:17.460Z,101206.82
2023-04-10T10:51:48.634Z,101211.94
2023-04-10T10:54:31.803Z,101207.23
2023-04-10T10:57:08.550Z,101210.75
2023-04-10T10:59:47.945Z,101212.42
2023-04-10T11:02:19.060Z,101209.66
2023-04-10T11:04:47.788Z,101202.55
2023-04-10T11:07:15.388Z,101203.64
2023-04-10T11:09:53.294Z,101201.83
2023-04-10T11:12:23.651Z,101199.77
2023-04-10T11:15:06.252Z,101199.94
2023-04-10T11:17:50.630Z,101198.66
2023-04-10T11:20:21.308Z,101197.38
2023-04-10T11:23:10.655Z,101198.64
2023-04-10T11:25:46.326Z,101199.23
2023-04-10T11:28:32.305Z,101200.67
2023-04-10T11:31:21.226Z,101202.00
2023-04-10T11:34:09.968Z,101201.38
2023-04-10T11:36:41.316Z,101198.77
2023-04-10T11:39:20.962Z,101200.27
2023-04-10T11:41:51.673Z,101195.92
2023-04-10T11:44:34.755Z,101194.05
2023-04-10T11:47:01.869Z,101194.14
2023-04-10T11:49:33.827Z,101190.85
2023-04-10T11:52:02.832Z,101190.38
2023-04-10T11:54:30.695Z,101187.05
2023-04-10T11:57:00.851Z,101184.95
2023-04-10T11:59:28.035Z,101181.35
2023-04-10T12:02:14.306Z,101177.02
2023-04-10T12:04:43.295Z,101174.66
2023-04-10T12:07:11.292Z,101175.13
2023-04-10T12:09:38.213Z,101167.27
2023-04-10T12:12:11.994Z,101164.58
2023-04-10T12:14:41.913Z,101162.89
2023-04-10T12:17:12.423Z,101159.95
2023-04-10T12:19:52.860Z,101154.92
2023-04-10T12:22:19.995Z,101150.23
2023-04-10T12:24:49.406Z,101147.62
2023-04-10T12:27:18.346Z,101139.56
2023-04-10T12:29:46.195Z,101137.98
2023-04-10T12:32:13.179Z,101133.55
2023-04-10T12:34:40.321Z,101135.49
2023-04-10T12:37:07.410Z,101140.02
2023-04-10T12:39:36.749Z,101143.23
2023-04-10T12:42:20.579Z,101151.86
2023-04-10T12:45:00.407Z,101159.00
2023-04-10T12:47:28.313Z,101176.08
2023-04-10T12:50:11.145Z,101181.42
2023-04-10T12:52:40.757Z,101175.26
2023-04-10T12:55:14.169Z,101180.50
2023-04-10T12:57:42.264Z,101169.73
2023-04-10T13:00:10.537Z,101165.04
2023-04-10T13:02:39.174Z,101160.52
2023-04-10T13:05:07.311Z,101156.36
2023-04-10T13:07:35.892Z,101155.77
2023-04-10T13:10:03.080Z,101151.49
2023-04-10T13:12:34.156Z,101153.20
2023-04-10T13:15:02.357Z,101144.62
2023-04-10T13:17:29.842Z,101137.39
2023-04-10T13:19:57.882Z,101135.89
2023-04-10T13:22:25.107Z,101124.15
2023-04-10T13:24:52.079Z,101126.05
2023-04-10T13:27:24.583Z,101118.85
2023-04-10T13:29:51.526Z,101117.18
2023-04-10T13:32:18.518Z,101116.95
2023-04-10T13:34:46.353Z,101107.55
2023-04-10T13:37:14.835Z,101105.53
2023-04-10T13:39:43.220Z,101098.41
2023-04-10T13:42:11.544Z,101103.44
2023-04-10T13:44:39.638Z,101106.05
2023-04-10T13:47:07.520Z,101102.11
2023-04-10T13:49:36.374Z,101096.58
2023-04-10T13:52:03.543Z,101101.70
2023-04-10T13:54:31.322Z,101095.08
2023-04-10T13:56:58.817Z,101092.72
2023-04-10T13:59:27.170Z,101093.04
2023-04-10T14:01:54.269Z,101094.59
2023-04-10T14:04:21.783Z,101090.08
2023-04-10T14:06:51.240Z,101090.91
2023-04-10T14:09:19.099Z,101091.20
2023-04-10T14:11:46.502Z,101082.96
2023-04-10T14:14:14.234Z,101083.39
2023-04-10T14:16:41.557Z,101080.98
2023-04-10T14:19:08.665Z,101077.15
2023-04-10T14:21:43.845Z,101075.06
2023-04-10T14:24:10.842Z,101072.90
2023-04-10T14:26:37.811Z,101070.42
2023-04-10T14:29:07.987Z,101070.02
2023-04-10T14:31:39.198Z,101070.88
2023-04-10T14:34:12.088Z,101073.52
2023-04-10T14:36:39.477Z,101071.94
2023-04-10T14:39:06.849Z,101070.21
2023-04-10T14:41:35.990Z,101066.35
2023-04-10T14:44:02.967Z,101067.89
2023-04-10T14:46:30.270Z,101058.23
2023-04-10T14:48:57.159Z,101055.80
2023-04-10T14:51:24.051Z,101055.02
2023-04-10T14:53:52.690Z,101052.02
2023-04-10T14:56:20.040Z,101048.15
2023-04-10T14:58:47.724Z,101044.23
2023-04-10T15:01:14.673Z,101041.80
2023-04-10T15:03:41.579Z,101040.39
2023-04-10T15:06:09.569Z,101036.77
2023-04-10T15:08:36.708Z,101033.70
2023-04-10T15:11:06.500Z,101025.75
2023-04-10T15:13:34.053Z,101027.11
2023-04-10T15:16:01.508Z,101027.23
2023-04-10T15:18:29.121Z,101028.06
2023-04-10T15:20:57.159Z,101022.23
2023-04-10T15:23:25.301Z,101023.20
2023-04-10T15:25:59.358Z,101018.60
2023-04-10T15:28:27.640Z,101016.23
2023-04-10T15:30:54.736Z,101015.39
2023-04-10T15:33:23.469Z,101010.84
2023-04-10T15:35:50.257Z,101013.48
2023-04-10T15:38:17.391Z,101008.92
2023-04-10T15:40:44.738Z,101010.04
2023-04-10T15:43:13.583Z,101010.73
2023-04-10T15:45:40.940Z,101012.85
2023-04-10T15:48:08.354Z,101007.55
2023-04-10T15:50:36.792Z,101003.33
2023-04-10T15:53:03.833Z,101000.95
2023-04-10T15:55:30.961Z,100998.43
2023-04-10T15:57:59.423Z,101000.25
2023-04-10T16:00:27.577Z,100998.30
2023-04-10T16:02:54.738Z,100994.63
2023-04-10T16:05:23.142Z,100995.80
2023-04-10T16:07:51.498Z,100994.15
2023-04-10T16:10:18.299Z,100994.55
2023-04-10T16:12:48.025Z,100996.20
2023-04-10T16:15:16.216Z,100994.00
2023-04-10T16:17:43.355Z,100994.73
2023-04-10T16:20:13.695Z,100988.02
2023-04-10T16:22:41.869Z,100992.98
2023-04-10T16:25:09.168Z,100993.25
2023-04-10T16:27:37.879Z,100994.09
2023-04-10T16:30:06.097Z,100996.14
2023-04-10T16:32:34.689Z,100992.33
2023-04-10T16:35:01.852Z,100994.95
2023-04-10T16:37:29.586Z,101000.87
2023-04-10T16:40:01.983Z,101002.04
2023-04-10T16:42:30.409Z,101002.07
2023-04-10T16:44:58.089Z,101006.70
2023-04-10T16:47:27.483Z,101007.17
2023-04-10T16:49:55.195Z,101006.94
2023-04-10T16:52:23.198Z,101006.94
2023-04-10T16:54:50.078Z,101007.98
2023-04-10T16:57:17.081Z,101006.98
2023-04-10T16:59:46.674Z,101007.70
2023-04-10T17:02:14.354Z,101010.90
2023-04-10T17:04:41.622Z,101010.02
2023-04-10T17:07:10.177Z,101007.55
2023-04-10T17:09:37.422Z,101011.52
2023-04-10T17:12:04.385Z,101012.29
2023-04-10T17:14:36.494Z,101015.11
2023-04-10T17:17:03.482Z,101011.59
2023-04-10T17:19:31.180Z,101012.46
2023-04-10T17:21:58.049Z,101022.32
2023-04-10T17:24:30.805Z,101018.67
2023-04-10T17:26:57.782Z,101020.18
2023-04-10T17:29:25.370Z,101021.88
2023-04-10T17:31:52.385Z,101021.42
2023-04-10T17:34:19.289Z,101026.08
2023-04-10T17:36:49.375Z,101023.62
2023-04-10T17:39:16.590Z,101024.70
2023-04-10T17:41:43.393Z,101029.67
2023-04-10T17:44:10.853Z,101034.61
2023-04-10T17:46:37.688Z,101035.11
2023-04-10T17:49:06.475Z,101034.05
2023-04-10T17:51:34.229Z,101036.55
2023-04-10T17:54:01.039Z,101036.33
2023-04-10T17:56:28.782Z,101036.93
2023-04-10T17:58:56.038Z,101039.00
2023-04-10T18:01:25.240Z,101037.86
2023-04-10T18:03:52.547Z,101037.20
2023-04-10T18:06:19.657Z,101035.98
2023-04-10T18:08:47.370Z,101033.02
2023-04-10T18:11:14.447Z,101035.50
2023-04-10T18:13:41.302Z,101036.77
2023-04-10T18:16:13.949Z,101035.91
2023-04-10T18:18:43.731Z,101038.41
2023-04-10T18:21:10.736Z,101040.27
2023-04-10T18:23:39.723Z,101039.23
2023-04-10T18:26:06.770Z,101039.38
2023-04-10T18:28:35.272Z,101040.14
2023-04-10T18:31:02.226Z,101041.43
2023-04-10T18:33:29.518Z,101036.20
2023-04-10T18:35:58.155Z,101037.98
2023-04-10T18:38:25.968Z,101035.23
2023-04-10T18:40:56.426Z,101038.00
2023-04-10T18:43:29.905Z,101036.58
2023-04-10T18:46:02.419Z,101039.34
2023-04-10T18:48:30.057Z,101034.56
2023-04-10T18:50:56.850Z,101039.56
2023-04-10T18:53:23.674Z,101040.19
2023-04-10T18:55:51.367Z,101038.23
2023-04-10T18:58:19.288Z,101040.58
2023-04-10T19:00:46.999Z,101042.92
2023-04-10T19:03:16.336Z,101043.48
2023-04-10T19:05:46.085Z,101044.36
2023-04-10T19:08:15.247Z,101045.29
2023-04-10T19:10:42.780Z,101045.27
2023-04-10T19:13:11.355Z,101047.77
2023-04-10T19:15:43.296Z,101047.67
2023-04-10T19:18:12.399Z,101043.92
2023-04-10T19:20:52.818Z,101045.70
2023-04-10T19:23:23.306Z,101044.20
2023-04-10T19:25:54.788Z,101039.38
2023-04-10T19:28:22.539Z,101038.09
2023-04-10T19:31:09.471Z,101040.63
2023-04-10T19:33:38.694Z,101041.23
2023-04-10T19:36:08.356Z,101038.88
2023-04-10T19:38:35.846Z,101035.98
2023-04-10T19:41:14.592Z,101037.13
2023-04-10T19:43:41.556Z,101033.72
2023-04-10T19:46:18.437Z,101034.83
2023-04-10T19:48:48.081Z,101028.92
2023-04-10T19:51:16.108Z,101032.24
2023-04-10T19:53:44.244Z,101028.53
2023-04-10T19:56:11.088Z,101030.36
2023-04-10T19:58:56.149Z,101023.98
2023-04-10T20:01:25.279Z,101027.70
2023-04-10T20:03:53.365Z,101029.16
2023-04-10T20:06:21.164Z,101025.92
2023-04-10T20:08:49.033Z,101025.19
2023-04-10T20:11:15.847Z,101028.25
2023-04-10T20:13:49.631Z,101024.53
2023-04-10T20:16:16.541Z,101027.33
2023-04-10T20:18:43.679Z,101026.98
2023-04-10T20:21:10.573Z,101022.64
2023-04-10T20:23:38.415Z,101026.01
2023-04-10T20:26:05.683Z,101023.23
2023-04-10T20:28:33.293Z,101024.83
2023-04-10T20:31:00.498Z,101020.50
2023-04-10T20:33:27.522Z,101018.65
2023-04-10T20:35:54.384Z,101015.73
2023-04-10T20:38:22.018Z,101015.48
2023-04-10T20:40:48.940Z,101015.35
2023-04-10T20:43:18.011Z,101011.76
2023-04-10T20:45:45.441Z,101016.59
2023-04-10T20:48:12.267Z,101013.26
2023-04-10T20:50:48.750Z,101011.80
2023-04-10T20:53:15.934Z,101011.23
2023-04-10T20:55:43.294Z,101006.84
2023-04-10T20:58:10.060Z,101008.60
2023-04-10T21:00:40.920Z,101006.69
2023-04-10T21:03:08.425Z,101003.44
2023-04-10T21:05:40.396Z,101004.16
2023-04-10T21:08:08.867Z,101004.40
2023-04-10T21:10:43.232Z,101004.52
2023-04-10T21:13:15.089Z,101003.77
2023-04-10T21:15:45.212Z,101001.83
2023-04-10T21:18:12.308Z,101001.64
2023-04-10T21:20:49.907Z,101004.09
2023-04-10T21:23:17.100Z,101004.56
2023-04-10T21:25:54.915Z,101003.66
2023-04-10T21:28:21.901Z,101003.77
2023-04-10T21:30:49.094Z,101002.30
2023-04-10T21:33:16.968Z,101002.36
2023-04-10T21:35:44.297Z,101002.20
2023-04-10T21:38:11.449Z,101001.34
2023-04-10T21:40:38.531Z,101003.53
2023-04-10T21:43:05.897Z,101001.52
2023-04-10T21:45:36.868Z,100997.75
2023-04-10T21:48:04.106Z,101005.57
2023-04-10T21:50:31.113Z,101002.38
2023-04-10T21:53:02.283Z,101002.55
2023-04-10T21:55:29.405Z,101002.84
2023-04-10T21:57:57.251Z,100999.10
2023-04-10T22:00:24.316Z,101003.00
2023-04-10T22:02:52.748Z,100997.45
2023-04-10T22:05:20.331Z,100996.17
2023-04-10T22:07:47.172Z,100999.00
2023-04-10T22:10:14.265Z,100997.55
2023-04-10T22:12:48.168Z,100996.29
2023-04-10T22:15:18.768Z,100996.90
2023-04-10T22:17:47.072Z,100994.05
2023-04-10T22:20:16.138Z,100991.05
2023-04-10T22:22:43.396Z,100988.88
2023-04-10T22:25:10.413Z,100990.58
2023-04-10T22:27:38.108Z,100988.63
2023-04-10T22:30:06.560Z,100984.42
2023-04-10T22:32:35.452Z,100981.18
2023-04-10T22:35:04.257Z,100981.38
2023-04-10T22:37:31.616Z,100980.41
2023-04-10T22:40:00.065Z,100982.00
2023-04-10T22:42:28.849Z,100979.28
2023-04-10T22:44:57.549Z,100976.89
2023-04-10T22:47:24.396Z,100973.47
2023-04-10T22:49:52.271Z,100968.31
2023-04-10T22:52:21.333Z,100970.86
2023-04-10T22:54:48.601Z,100967.66
2023-04-10T22:57:15.418Z,100961.50
2023-04-10T22:59:43.979Z,100955.84
2023-04-10T23:04:38.512Z,100959.23
2023-04-10T23:07:06.037Z,100958.55
2023-04-10T23:09:32.798Z,100956.11
2023-04-10T23:12:04.772Z,100958.95
2023-04-10T23:14:35.227Z,100957.26
2023-04-10T23:17:02.286Z,100953.44
2023-04-10T23:19:35.145Z,100952.48
2023-04-10T23:22:02.415Z,100945.59
2023-04-10T23:24:29.968Z,100946.17
2023-04-10T23:27:06.237Z,100940.73
2023-04-10T23:29:33.908Z,100938.59
2023-04-10T23:32:00.784Z,100932.98
2023-04-10T23:34:29.469Z,100934.63
2023-04-10T23:36:57.591Z,100931.61
2023-04-10T23:39:24.436Z,100930.45
2023-04-10T23:41:55.403Z,100926.95
2023-04-10T23:44:22.837Z,100929.41
2023-04-10T23:46:50.184Z,100920.92
2023-04-10T23:49:17.605Z,100920.63
2023-04-10T23:51:44.692Z,100921.89
2023-04-10T23:54:12.761Z,100920.40
2023-04-10T23:56:40.173Z,100915.25
2023-04-10T23:59:06.923Z,100916.39
